sensor_id;sensor_type;location;lat;lon;timestamp;P1;durP1;ratioP1;P2;durP2;ratioP2
45382;SDS011;42455;51.660;5.824;2023-06-19T00:04:33;6.5;;;6.0;;
45382;SDS011;42455;51.660;5.824;2023-06-19T00:09:39;6.0;;;6.0;;
45382;SDS011;42455;51.660;5.824;2023-06-19T00:14:45;6.0;;;6.0;;
45382;SDS011;42455;51.660;5.824;2023-06-19T00:19:51;6.0;;;6.0;;
45382;SDS011;42455;51.660;5.824;2023-06-19T00:24:57;6.0;;;6.0;;
45382;SDS011;42455;51.660;5.824;2023-06-19T00:30:05;6.0;;;6.0;;
45382;SDS011;42455;51.660;5.824;2023-06-19T00:35:10;6.0;;;6.0;;
45382;SDS011;42455;51.660;5.824;2023-06-19T00:40:18;6.0;;;5.0;;
45382;SDS011;42455;51.660;5.824;2023-06-19T00:45:22;7.0;;;6.0;;
45382;SDS011;42455;51.660;5.824;2023-06-19T00:50:29;6.0;;;5.0;;
45382;SDS011;42455;51.660;5.824;2023-06-19T00:55:34;6.0;;;5.0;;
45382;SDS011;42455;51.660;5.824;2023-06-19T01:00:41;6.0;;;5.0;;
45382;SDS011;42455;51.660;5.824;2023-06-19T01:05:47;6.0;;;6.0;;
45382;SDS011;42455;51.660;5.824;2023-06-19T01:11:01;6.0;;;6.0;;
45382;SDS011;42455;51.660;5.824;2023-06-19T01:16:02;6.0;;;6.0;;
45382;SDS011;42455;51.660;5.824;2023-06-19T01:21:09;6.0;;;6.0;;
45382;SDS011;42455;51.660;5.824;2023-06-19T01:26:12;6.0;;;5.0;;
45382;SDS011;42455;51.660;5.824;2023-06-19T01:31:24;6.0;;;6.0;;
45382;SDS011;42455;51.660;5.824;2023-06-19T01:36:24;6.0;;;5.0;;
45382;SDS011;42455;51.660;5.824;2023-06-19T01:41:32;5.0;;;5.0;;
45382;SDS011;42455;51.660;5.824;2023-06-19T01:46:37;5.0;;;4.0;;
45382;SDS011;42455;51.660;5.824;2023-06-19T01:51:43;4.0;;;4.0;;
45382;SDS011;42455;51.660;5.824;2023-06-19T01:56:49;4.0;;;3.0;;
45382;SDS011;42455;51.660;5.824;2023-06-19T02:01:55;4.0;;;4.0;;
45382;SDS011;42455;51.660;5.824;2023-06-19T02:07:01;4.0;;;4.0;;
45382;SDS011;42455;51.660;5.824;2023-06-19T02:12:08;5.0;;;4.0;;
45382;SDS011;42455;51.660;5.824;2023-06-19T02:17:14;4.0;;;4.0;;
45382;SDS011;42455;51.660;5.824;2023-06-19T02:22:20;5.0;;;4.0;;
45382;SDS011;42455;51.660;5.824;2023-06-19T02:27:26;5.0;;;5.0;;
45382;SDS011;42455;51.660;5.824;2023-06-19T02:32:32;4.0;;;4.0;;
45382;SDS011;42455;51.660;5.824;2023-06-19T02:37:39;4.0;;;4.0;;
45382;SDS011;42455;51.660;5.824;2023-06-19T02:42:45;4.0;;;4.0;;
45382;SDS011;42455;51.660;5.824;2023-06-19T02:47:51;4.0;;;4.0;;
45382;SDS011;42455;51.660;5.824;2023-06-19T02:52:57;4.0;;;4.0;;
45382;SDS011;42455;51.660;5.824;2023-06-19T02:58:03;4.0;;;3.0;;
45382;SDS011;42455;51.660;5.824;2023-06-19T03:03:10;3.0;;;3.0;;
45382;SDS011;42455;51.660;5.824;2023-06-19T03:08:16;3.0;;;3.0;;
45382;SDS011;42455;51.660;5.824;2023-06-19T03:13:22;4.0;;;3.0;;
45382;SDS011;42455;51.660;5.824;2023-06-19T03:18:28;3.0;;;3.0;;
45382;SDS011;42455;51.660;5.824;2023-06-19T03:23:35;4.0;;;3.0;;
45382;SDS011;42455;51.660;5.824;2023-06-19T03:28:41;3.0;;;3.0;;
45382;SDS011;42455;51.660;5.824;2023-06-19T03:33:47;4.0;;;3.0;;
45382;SDS011;42455;51.660;5.824;2023-06-19T03:38:53;4.0;;;3.0;;
45382;SDS011;42455;51.660;5.824;2023-06-19T03:43:59;4.0;;;3.0;;
45382;SDS011;42455;51.660;5.824;2023-06-19T03:49:06;4.0;;;3.0;;
45382;SDS011;42455;51.660;5.824;2023-06-19T03:54:12;4.0;;;3.0;;
45382;SDS011;42455;51.660;5.824;2023-06-19T03:59:18;3.5;;;3.0;;
45382;SDS011;42455;51.660;5.824;2023-06-19T04:04:24;4.0;;;4.0;;
45382;SDS011;42455;51.660;5.824;2023-06-19T04:09:30;4.0;;;3.5;;
45382;SDS011;42455;51.660;5.824;2023-06-19T04:14:37;4.0;;;4.0;;
45382;SDS011;42455;51.660;5.824;2023-06-19T04:19:43;4.0;;;4.0;;
45382;SDS011;42455;51.660;5.824;2023-06-19T04:24:49;4.0;;;4.0;;
45382;SDS011;42455;51.660;5.824;2023-06-19T04:29:55;4.0;;;3.0;;
45382;SDS011;42455;51.660;5.824;2023-06-19T04:35:01;5.0;;;4.0;;
45382;SDS011;42455;51.660;5.824;2023-06-19T04:40:08;5.0;;;4.0;;
45382;SDS011;42455;51.660;5.824;2023-06-19T04:45:14;5.0;;;4.0;;
45382;SDS011;42455;51.660;5.824;2023-06-19T04:55:26;5.0;;;4.0;;
45382;SDS011;42455;51.660;5.824;2023-06-19T05:00:33;4.5;;;4.0;;
45382;SDS011;42455;51.660;5.824;2023-06-19T05:05:39;5.0;;;5.0;;
45382;SDS011;42455;51.660;5.824;2023-06-19T05:10:45;5.0;;;4.0;;
45382;SDS011;42455;51.660;5.824;2023-06-19T05:15:51;5.0;;;5.0;;
45382;SDS011;42455;51.660;5.824;2023-06-19T05:20:57;5.0;;;4.0;;
45382;SDS011;42455;51.660;5.824;2023-06-19T05:26:04;5.0;;;4.0;;
45382;SDS011;42455;51.660;5.824;2023-06-19T05:31:10;5.0;;;4.0;;
45382;SDS011;42455;51.660;5.824;2023-06-19T05:36:16;6.0;;;5.0;;
45382;SDS011;42455;51.660;5.824;2023-06-19T05:41:21;7.0;;;5.0;;
45382;SDS011;42455;51.660;5.824;2023-06-19T05:46:27;6.0;;;5.0;;
45382;SDS011;42455;51.660;5.824;2023-06-19T05:51:34;5.0;;;5.0;;
45382;SDS011;42455;51.660;5.824;2023-06-19T05:56:40;6.0;;;5.0;;
45382;SDS011;42455;51.660;5.824;2023-06-19T06:01:46;6.0;;;5.0;;
45382;SDS011;42455;51.660;5.824;2023-06-19T06:06:52;6.0;;;5.0;;
45382;SDS011;42455;51.660;5.824;2023-06-19T06:11:58;6.0;;;5.0;;
45382;SDS011;42455;51.660;5.824;2023-06-19T06:17:05;6.0;;;5.0;;
45382;SDS011;42455;51.660;5.824;2023-06-19T06:22:11;6.0;;;5.0;;
45382;SDS011;42455;51.660;5.824;2023-06-19T06:27:17;6.0;;;5.0;;
45382;SDS011;42455;51.660;5.824;2023-06-19T06:32:23;6.0;;;5.0;;
45382;SDS011;42455;51.660;5.824;2023-06-19T06:37:30;6.0;;;5.0;;
45382;SDS011;42455;51.660;5.824;2023-06-19T06:42:36;6.0;;;6.0;;
45382;SDS011;42455;51.660;5.824;2023-06-19T06:47:42;7.0;;;6.0;;
45382;SDS011;42455;51.660;5.824;2023-06-19T06:52:48;7.0;;;6.0;;
45382;SDS011;42455;51.660;5.824;2023-06-19T06:57:54;7.0;;;5.0;;
45382;SDS011;42455;51.660;5.824;2023-06-19T07:03:01;6.0;;;6.0;;
45382;SDS011;42455;51.660;5.824;2023-06-19T07:08:07;7.0;;;6.0;;
45382;SDS011;42455;51.660;5.824;2023-06-19T07:13:13;7.0;;;7.0;;
45382;SDS011;42455;51.660;5.824;2023-06-19T07:18:19;7.0;;;7.0;;
45382;SDS011;42455;51.660;5.824;2023-06-19T07:23:25;7.0;;;7.0;;
45382;SDS011;42455;51.660;5.824;2023-06-19T07:28:32;8.0;;;7.0;;
45382;SDS011;42455;51.660;5.824;2023-06-19T07:33:38;8.0;;;8.0;;
45382;SDS011;42455;51.660;5.824;2023-06-19T07:38:44;9.0;;;8.0;;
45382;SDS011;42455;51.660;5.824;2023-06-19T07:43:50;10.0;;;9.5;;
45382;SDS011;42455;51.660;5.824;2023-06-19T07:48:57;11.0;;;10.0;;
45382;SDS011;42455;51.660;5.824;2023-06-19T07:54:03;11.0;;;10.0;;
45382;SDS011;42455;51.660;5.824;2023-06-19T07:59:09;11.0;;;10.0;;
45382;SDS011;42455;51.660;5.824;2023-06-19T08:04:15;10.0;;;10.0;;
45382;SDS011;42455;51.660;5.824;2023-06-19T08:09:21;11.0;;;10.0;;
45382;SDS011;42455;51.660;5.824;2023-06-19T08:14:28;11.0;;;10.0;;
45382;SDS011;42455;51.660;5.824;2023-06-19T08:19:34;10.0;;;10.0;;
45382;SDS011;42455;51.660;5.824;2023-06-19T08:24:40;11.0;;;10.0;;
45382;SDS011;42455;51.660;5.824;2023-06-19T08:29:46;12.0;;;11.0;;
45382;SDS011;42455;51.660;5.824;2023-06-19T08:34:52;11.0;;;10.0;;
45382;SDS011;42455;51.660;5.824;2023-06-19T08:39:59;11.0;;;10.0;;
45382;SDS011;42455;51.660;5.824;2023-06-19T08:45:05;11.0;;;10.0;;
45382;SDS011;42455;51.660;5.824;2023-06-19T08:50:11;11.0;;;10.0;;
45382;SDS011;42455;51.660;5.824;2023-06-19T08:55:17;10.0;;;9.0;;
45382;SDS011;42455;51.660;5.824;2023-06-19T09:00:25;11.0;;;10.0;;
45382;SDS011;42455;51.660;5.824;2023-06-19T09:05:30;11.0;;;10.0;;
45382;SDS011;42455;51.660;5.824;2023-06-19T09:10:36;10.0;;;9.0;;
45382;SDS011;42455;51.660;5.824;2023-06-19T09:15:42;9.0;;;8.0;;
45382;SDS011;42455;51.660;5.824;2023-06-19T09:20:51;9.0;;;8.0;;
45382;SDS011;42455;51.660;5.824;2023-06-19T09:25:56;10.0;;;9.0;;
45382;SDS011;42455;51.660;5.824;2023-06-19T09:31:01;10.0;;;9.0;;
45382;SDS011;42455;51.660;5.824;2023-06-19T09:36:07;9.0;;;8.0;;
45382;SDS011;42455;51.660;5.824;2023-06-19T09:41:13;8.0;;;7.0;;
45382;SDS011;42455;51.660;5.824;2023-06-19T09:46:19;8.0;;;7.0;;
45382;SDS011;42455;51.660;5.824;2023-06-19T09:51:27;9.0;;;8.0;;
45382;SDS011;42455;51.660;5.824;2023-06-19T09:56:32;9.0;;;8.0;;
45382;SDS011;42455;51.660;5.824;2023-06-19T10:01:38;8.0;;;8.0;;
45382;SDS011;42455;51.660;5.824;2023-06-19T10:06:45;12.0;;;8.0;;
45382;SDS011;42455;51.660;5.824;2023-06-19T10:11:51;9.0;;;8.0;;
45382;SDS011;42455;51.660;5.824;2023-06-19T10:16:57;9.0;;;8.0;;
45382;SDS011;42455;51.660;5.824;2023-06-19T10:22:03;10.0;;;8.0;;
45382;SDS011;42455;51.660;5.824;2023-06-19T10:27:09;8.0;;;7.5;;
45382;SDS011;42455;51.660;5.824;2023-06-19T10:32:15;8.0;;;7.0;;
45382;SDS011;42455;51.660;5.824;2023-06-19T10:37:31;8.0;;;7.0;;
45382;SDS011;42455;51.660;5.824;2023-06-19T10:42:28;8.0;;;8.0;;
45382;SDS011;42455;51.660;5.824;2023-06-19T10:47:34;8.0;;;7.0;;
45382;SDS011;42455;51.660;5.824;2023-06-19T10:52:40;8.0;;;8.0;;
45382;SDS011;42455;51.660;5.824;2023-06-19T10:57:47;8.0;;;7.0;;
45382;SDS011;42455;51.660;5.824;2023-06-19T11:02:53;7.0;;;6.0;;
45382;SDS011;42455;51.660;5.824;2023-06-19T11:07:59;8.0;;;7.0;;
45382;SDS011;42455;51.660;5.824;2023-06-19T11:13:04;8.0;;;6.0;;
45382;SDS011;42455;51.660;5.824;2023-06-19T11:18:10;7.0;;;6.0;;
45382;SDS011;42455;51.660;5.824;2023-06-19T11:23:17;8.0;;;7.0;;
45382;SDS011;42455;51.660;5.824;2023-06-19T11:28:26;8.0;;;8.0;;
45382;SDS011;42455;51.660;5.824;2023-06-19T11:33:29;8.0;;;8.0;;
45382;SDS011;42455;51.660;5.824;2023-06-19T11:38:35;9.0;;;8.0;;
45382;SDS011;42455;51.660;5.824;2023-06-19T11:43:41;7.0;;;6.5;;
45382;SDS011;42455;51.660;5.824;2023-06-19T11:48:48;7.0;;;7.0;;
45382;SDS011;42455;51.660;5.824;2023-06-19T11:53:54;7.0;;;7.0;;
45382;SDS011;42455;51.660;5.824;2023-06-19T11:59:00;7.0;;;6.0;;
45382;SDS011;42455;51.660;5.824;2023-06-19T12:04:06;6.0;;;6.0;;
45382;SDS011;42455;51.660;5.824;2023-06-19T12:09:13;8.0;;;7.0;;
45382;SDS011;42455;51.660;5.824;2023-06-19T12:14:19;7.0;;;6.0;;
45382;SDS011;42455;51.660;5.824;2023-06-19T12:19:25;6.0;;;5.0;;
45382;SDS011;42455;51.660;5.824;2023-06-19T12:24:31;6.0;;;5.0;;
45382;SDS011;42455;51.660;5.824;2023-06-19T12:29:37;7.0;;;6.0;;
45382;SDS011;42455;51.660;5.824;2023-06-19T12:34:44;6.0;;;6.0;;
45382;SDS011;42455;51.660;5.824;2023-06-19T12:39:50;7.0;;;6.0;;
45382;SDS011;42455;51.660;5.824;2023-06-19T12:44:56;7.0;;;6.0;;
45382;SDS011;42455;51.660;5.824;2023-06-19T12:50:02;6.0;;;6.0;;
45382;SDS011;42455;51.660;5.824;2023-06-19T12:55:08;7.0;;;6.0;;
45382;SDS011;42455;51.660;5.824;2023-06-19T13:00:15;7.0;;;6.0;;
45382;SDS011;42455;51.660;5.824;2023-06-19T13:05:21;7.0;;;6.0;;
45382;SDS011;42455;51.660;5.824;2023-06-19T13:10:27;6.0;;;6.0;;
45382;SDS011;42455;51.660;5.824;2023-06-19T13:15:33;6.0;;;6.0;;
45382;SDS011;42455;51.660;5.824;2023-06-19T13:20:40;6.0;;;6.0;;
45382;SDS011;42455;51.660;5.824;2023-06-19T13:25:46;6.0;;;6.0;;
45382;SDS011;42455;51.660;5.824;2023-06-19T13:30:52;6.0;;;6.0;;
45382;SDS011;42455;51.660;5.824;2023-06-19T13:35:58;7.0;;;6.0;;
45382;SDS011;42455;51.660;5.824;2023-06-19T13:41:04;6.0;;;5.0;;
45382;SDS011;42455;51.660;5.824;2023-06-19T13:46:11;6.0;;;5.0;;
45382;SDS011;42455;51.660;5.824;2023-06-19T13:51:17;6.0;;;6.0;;
45382;SDS011;42455;51.660;5.824;2023-06-19T13:56:23;6.0;;;6.0;;
45382;SDS011;42455;51.660;5.824;2023-06-19T14:01:29;6.0;;;6.0;;
45382;SDS011;42455;51.660;5.824;2023-06-19T14:06:35;6.0;;;5.0;;
45382;SDS011;42455;51.660;5.824;2023-06-19T14:11:42;6.0;;;6.0;;
45382;SDS011;42455;51.660;5.824;2023-06-19T14:16:48;8.0;;;7.0;;
45382;SDS011;42455;51.660;5.824;2023-06-19T14:21:54;7.0;;;6.0;;
45382;SDS011;42455;51.660;5.824;2023-06-19T14:27:00;7.0;;;6.0;;
45382;SDS011;42455;51.660;5.824;2023-06-19T14:32:06;8.0;;;6.0;;
45382;SDS011;42455;51.660;5.824;2023-06-19T14:37:13;7.0;;;6.0;;
45382;SDS011;42455;51.660;5.824;2023-06-19T14:42:19;6.0;;;5.0;;
45382;SDS011;42455;51.660;5.824;2023-06-19T14:47:25;7.0;;;6.0;;
45382;SDS011;42455;51.660;5.824;2023-06-19T14:52:31;10.0;;;6.0;;
45382;SDS011;42455;51.660;5.824;2023-06-19T14:57:38;7.0;;;6.0;;
45382;SDS011;42455;51.660;5.824;2023-06-19T15:02:44;6.0;;;5.0;;
45382;SDS011;42455;51.660;5.824;2023-06-19T15:07:50;6.0;;;6.0;;
45382;SDS011;42455;51.660;5.824;2023-06-19T15:12:56;6.0;;;6.0;;
45382;SDS011;42455;51.660;5.824;2023-06-19T15:18:02;6.0;;;6.0;;
45382;SDS011;42455;51.660;5.824;2023-06-19T15:23:09;6.0;;;6.0;;
45382;SDS011;42455;51.660;5.824;2023-06-19T15:28:15;6.0;;;6.0;;
45382;SDS011;42455;51.660;5.824;2023-06-19T15:33:21;6.0;;;6.0;;
45382;SDS011;42455;51.660;5.824;2023-06-19T15:38:27;13.0;;;7.0;;
45382;SDS011;42455;51.660;5.824;2023-06-19T15:43:33;6.5;;;6.0;;
45382;SDS011;42455;51.660;5.824;2023-06-19T15:48:40;6.0;;;6.0;;
45382;SDS011;42455;51.660;5.824;2023-06-19T15:53:46;7.0;;;6.0;;
45382;SDS011;42455;51.660;5.824;2023-06-19T15:58:52;7.0;;;6.0;;
45382;SDS011;42455;51.660;5.824;2023-06-19T16:03:58;7.0;;;6.0;;
45382;SDS011;42455;51.660;5.824;2023-06-19T16:09:04;7.0;;;6.0;;
45382;SDS011;42455;51.660;5.824;2023-06-19T16:14:11;7.0;;;6.0;;
45382;SDS011;42455;51.660;5.824;2023-06-19T16:19:17;39.5;;;8.0;;
45382;SDS011;42455;51.660;5.824;2023-06-19T16:24:23;6.0;;;6.0;;
45382;SDS011;42455;51.660;5.824;2023-06-19T16:29:29;7.0;;;6.0;;
45382;SDS011;42455;51.660;5.824;2023-06-19T16:34:36;6.0;;;6.0;;
45382;SDS011;42455;51.660;5.824;2023-06-19T16:39:42;6.0;;;6.0;;
45382;SDS011;42455;51.660;5.824;2023-06-19T16:44:47;6.0;;;6.0;;
45382;SDS011;42455;51.660;5.824;2023-06-19T16:49:53;6.0;;;5.0;;
45382;SDS011;42455;51.660;5.824;2023-06-19T16:54:59;6.0;;;5.0;;
45382;SDS011;42455;51.660;5.824;2023-06-19T17:00:06;6.0;;;5.0;;
45382;SDS011;42455;51.660;5.824;2023-06-19T17:05:12;6.0;;;6.0;;
45382;SDS011;42455;51.660;5.824;2023-06-19T17:10:18;6.0;;;6.0;;
45382;SDS011;42455;51.660;5.824;2023-06-19T17:15:24;6.0;;;5.0;;
45382;SDS011;42455;51.660;5.824;2023-06-19T17:20:30;6.0;;;5.0;;
45382;SDS011;42455;51.660;5.824;2023-06-19T17:25:36;5.0;;;5.0;;
45382;SDS011;42455;51.660;5.824;2023-06-19T17:30:42;6.0;;;6.0;;
45382;SDS011;42455;51.660;5.824;2023-06-19T17:35:48;6.0;;;5.0;;
45382;SDS011;42455;51.660;5.824;2023-06-19T17:40:54;6.0;;;5.0;;
45382;SDS011;42455;51.660;5.824;2023-06-19T17:46:00;6.0;;;6.0;;
45382;SDS011;42455;51.660;5.824;2023-06-19T17:51:07;10.0;;;8.0;;
45382;SDS011;42455;51.660;5.824;2023-06-19T17:56:13;11.0;;;10.0;;
45382;SDS011;42455;51.660;5.824;2023-06-19T18:01:19;10.0;;;9.0;;
45382;SDS011;42455;51.660;5.824;2023-06-19T18:06:25;10.0;;;9.0;;
45382;SDS011;42455;51.660;5.824;2023-06-19T18:11:32;10.0;;;9.0;;
45382;SDS011;42455;51.660;5.824;2023-06-19T18:16:38;11.0;;;10.0;;
45382;SDS011;42455;51.660;5.824;2023-06-19T18:21:44;10.0;;;9.0;;
45382;SDS011;42455;51.660;5.824;2023-06-19T18:26:50;9.0;;;8.0;;
45382;SDS011;42455;51.660;5.824;2023-06-19T18:31:56;9.0;;;8.0;;
45382;SDS011;42455;51.660;5.824;2023-06-19T18:37:03;10.0;;;8.0;;
45382;SDS011;42455;51.660;5.824;2023-06-19T18:42:09;10.0;;;9.0;;
45382;SDS011;42455;51.660;5.824;2023-06-19T18:47:15;9.0;;;8.0;;
45382;SDS011;42455;51.660;5.824;2023-06-19T18:52:21;10.0;;;9.0;;
45382;SDS011;42455;51.660;5.824;2023-06-19T18:57:27;12.0;;;11.0;;
45382;SDS011;42455;51.660;5.824;2023-06-19T19:02:34;12.0;;;11.0;;
45382;SDS011;42455;51.660;5.824;2023-06-19T19:07:40;12.0;;;11.0;;
45382;SDS011;42455;51.660;5.824;2023-06-19T19:12:46;12.0;;;11.0;;
45382;SDS011;42455;51.660;5.824;2023-06-19T19:17:52;13.0;;;11.5;;
45382;SDS011;42455;51.660;5.824;2023-06-19T19:22:59;12.0;;;11.0;;
45382;SDS011;42455;51.660;5.824;2023-06-19T19:28:05;13.0;;;11.0;;
45382;SDS011;42455;51.660;5.824;2023-06-19T19:33:12;13.0;;;12.0;;
45382;SDS011;42455;51.660;5.824;2023-06-19T19:38:18;13.0;;;12.0;;
45382;SDS011;42455;51.660;5.824;2023-06-19T19:43:24;11.0;;;10.0;;
45382;SDS011;42455;51.660;5.824;2023-06-19T19:48:30;12.0;;;11.0;;
45382;SDS011;42455;51.660;5.824;2023-06-19T19:53:36;11.5;;;10.0;;
45382;SDS011;42455;51.660;5.824;2023-06-19T19:58:42;11.0;;;10.0;;
45382;SDS011;42455;51.660;5.824;2023-06-19T20:03:49;11.0;;;10.0;;
45382;SDS011;42455;51.660;5.824;2023-06-19T20:08:55;12.0;;;10.0;;
45382;SDS011;42455;51.660;5.824;2023-06-19T20:14:01;12.0;;;11.0;;
45382;SDS011;42455;51.660;5.824;2023-06-19T20:19:07;11.0;;;10.0;;
45382;SDS011;42455;51.660;5.824;2023-06-19T20:24:14;12.0;;;11.0;;
45382;SDS011;42455;51.660;5.824;2023-06-19T20:29:20;11.0;;;10.0;;
45382;SDS011;42455;51.660;5.824;2023-06-19T20:34:26;11.0;;;10.0;;
45382;SDS011;42455;51.660;5.824;2023-06-19T20:39:32;11.0;;;10.0;;
45382;SDS011;42455;51.660;5.824;2023-06-19T20:44:38;12.0;;;11.0;;
45382;SDS011;42455;51.660;5.824;2023-06-19T20:49:45;12.0;;;11.0;;
45382;SDS011;42455;51.660;5.824;2023-06-19T20:54:51;12.0;;;11.0;;
45382;SDS011;42455;51.660;5.824;2023-06-19T20:59:57;12.0;;;11.0;;
45382;SDS011;42455;51.660;5.824;2023-06-19T21:05:03;14.0;;;12.0;;
45382;SDS011;42455;51.660;5.824;2023-06-19T21:10:10;14.0;;;13.0;;
45382;SDS011;42455;51.660;5.824;2023-06-19T21:15:16;14.0;;;13.0;;
45382;SDS011;42455;51.660;5.824;2023-06-19T21:20:22;15.0;;;13.0;;
45382;SDS011;42455;51.660;5.824;2023-06-19T21:25:28;14.0;;;13.0;;
45382;SDS011;42455;51.660;5.824;2023-06-19T21:30:34;15.0;;;13.0;;
45382;SDS011;42455;51.660;5.824;2023-06-19T21:35:40;14.0;;;13.0;;
45382;SDS011;42455;51.660;5.824;2023-06-19T21:40:47;15.0;;;14.0;;
45382;SDS011;42455;51.660;5.824;2023-06-19T21:45:53;15.0;;;14.0;;
45382;SDS011;42455;51.660;5.824;2023-06-19T21:50:59;15.0;;;13.0;;
45382;SDS011;42455;51.660;5.824;2023-06-19T21:56:05;15.0;;;13.0;;
45382;SDS011;42455;51.660;5.824;2023-06-19T22:01:12;14.0;;;12.5;;
45382;SDS011;42455;51.660;5.824;2023-06-19T22:06:18;15.0;;;13.0;;
45382;SDS011;42455;51.660;5.824;2023-06-19T22:11:24;15.0;;;13.0;;
45382;SDS011;42455;51.660;5.824;2023-06-19T22:16:30;15.0;;;13.0;;
45382;SDS011;42455;51.660;5.824;2023-06-19T22:21:36;14.0;;;12.0;;
45382;SDS011;42455;51.660;5.824;2023-06-19T22:26:43;13.5;;;12.0;;
45382;SDS011;42455;51.660;5.824;2023-06-19T22:31:49;13.0;;;12.0;;
45382;SDS011;42455;51.660;5.824;2023-06-19T22:36:55;13.0;;;12.0;;
45382;SDS011;42455;51.660;5.824;2023-06-19T22:42:01;13.0;;;12.0;;
45382;SDS011;42455;51.660;5.824;2023-06-19T22:47:07;13.0;;;12.0;;
45382;SDS011;42455;51.660;5.824;2023-06-19T22:52:13;14.0;;;12.0;;
45382;SDS011;42455;51.660;5.824;2023-06-19T22:57:19;13.0;;;12.0;;
45382;SDS011;42455;51.660;5.824;2023-06-19T23:02:25;13.0;;;12.0;;
45382;SDS011;42455;51.660;5.824;2023-06-19T23:07:31;13.0;;;12.0;;
45382;SDS011;42455;51.660;5.824;2023-06-19T23:12:37;13.0;;;12.0;;
45382;SDS011;42455;51.660;5.824;2023-06-19T23:17:44;13.0;;;11.5;;
45382;SDS011;42455;51.660;5.824;2023-06-19T23:22:50;13.0;;;11.5;;
45382;SDS011;42455;51.660;5.824;2023-06-19T23:27:56;13.0;;;11.5;;
45382;SDS011;42455;51.660;5.824;2023-06-19T23:33:02;13.0;;;11.5;;
45382;SDS011;42455;51.660;5.824;2023-06-19T23:38:09;12.0;;;11.0;;
45382;SDS011;42455;51.660;5.824;2023-06-19T23:43:15;12.0;;;11.0;;
45382;SDS011;42455;51.660;5.824;2023-06-19T23:48:21;13.0;;;11.5;;
45382;SDS011;42455;51.660;5.824;2023-06-19T23:53:27;13.0;;;12.0;;
45382;SDS011;42455;51.660;5.824;2023-06-19T23:58:33;12.5;;;11.0;;
